sensor_id;sensor_type;location;lat;lon;timestamp;pressure;altitude;pressure_sealevel;temperature;humidity
23574;BME280;11965;53.640;10.050;2023-07-13T00:02:15;101063.34;;;14.77;100.00
23574;BME280;11965;53.640;10.050;2023-07-13T00:04:42;101058.84;;;14.69;100.00
23574;BME280;11965;53.640;10.050;2023-07-13T00:07:09;101063.59;;;14.62;100.00
23574;BME280;11965;53.640;10.050;2023-07-13T00:09:37;101064.44;;;14.56;100.00
23574;BME280;11965;53.640;10.050;2023-07-13T00:12:04;101059.69;;;14.50;100.00
23574;BME280;11965;53.640;10.050;2023-07-13T00:14:32;101052.19;;;14.44;100.00
23574;BME280;11965;53.640;10.050;2023-07-13T00:16:59;101045.97;;;14.42;100.00
23574;BME280;11965;53.640;10.050;2023-07-13T00:19:27;101060.34;;;14.39;100.00
23574;BME280;11965;53.640;10.050;2023-07-13T00:21:53;101054.34;;;14.35;100.00
23574;BME280;11965;53.640;10.050;2023-07-13T00:24:21;101051.13;;;14.31;100.00
23574;BME280;11965;53.640;10.050;2023-07-13T00:26:50;101052.41;;;14.29;100.00
23574;BME280;11965;53.640;10.050;2023-07-13T00:29:17;101056.91;;;14.23;100.00
23574;BME280;11965;53.640;10.050;2023-07-13T00:31:44;101057.16;;;14.22;100.00
23574;BME280;11965;53.640;10.050;2023-07-13T00:34:11;101051.53;;;14.15;100.00
23574;BME280;11965;53.640;10.050;2023-07-13T00:36:38;101045.31;;;14.13;100.00
23574;BME280;11965;53.640;10.050;2023-07-13T00:39:05;101045.31;;;14.13;100.00
23574;BME280;11965;53.640;10.050;2023-07-13T00:41:32;101055.00;;;14.10;100.00
23574;BME280;11965;53.640;10.050;2023-07-13T00:44:00;101066.16;;;14.10;100.00
23574;BME280;11965;53.640;10.050;2023-07-13T00:46:30;101062.25;;;14.05;100.00
23574;BME280;11965;53.640;10.050;2023-07-13T00:49:00;101060.97;;;14.01;100.00
23574;BME280;11965;53.640;10.050;2023-07-13T00:51:32;101066.53;;;13.94;100.00
23574;BME280;11965;53.640;10.050;2023-07-13T00:54:05;101054.09;;;13.90;100.00
23574;BME280;11965;53.640;10.050;2023-07-13T00:56:34;101067.59;;;13.93;100.00
23574;BME280;11965;53.640;10.050;2023-07-13T00:59:07;101056.88;;;13.90;100.00
23574;BME280;11965;53.640;10.050;2023-07-13T01:01:34;101056.00;;;13.83;100.00
23574;BME280;11965;53.640;10.050;2023-07-13T01:04:02;101061.38;;;13.84;100.00
23574;BME280;11965;53.640;10.050;2023-07-13T01:06:34;101051.09;;;13.78;100.00
23574;BME280;11965;53.640;10.050;2023-07-13T01:09:01;101060.91;;;13.74;100.00
23574;BME280;11965;53.640;10.050;2023-07-13T01:11:28;101059.84;;;13.75;100.00
23574;BME280;11965;53.640;10.050;2023-07-13T01:13:56;101058.56;;;13.71;100.00
23574;BME280;11965;53.640;10.050;2023-07-13T01:16:28;101056.41;;;13.66;100.00
23574;BME280;11965;53.640;10.050;2023-07-13T01:18:56;101059.81;;;13.62;100.00
23574;BME280;11965;53.640;10.050;2023-07-13T01:21:27;101060.88;;;13.61;100.00
23574;BME280;11965;53.640;10.050;2023-07-13T01:23:54;101058.28;;;13.59;100.00
23574;BME280;11965;53.640;10.050;2023-07-13T01:26:22;101052.94;;;13.58;100.00
23574;BME280;11965;53.640;10.050;2023-07-13T01:28:48;101058.47;;;13.51;100.00
23574;BME280;11965;53.640;10.050;2023-07-13T01:31:15;101064.06;;;13.51;100.00
23574;BME280;11965;53.640;10.050;2023-07-13T01:33:42;101067.25;;;13.48;100.00
23574;BME280;11965;53.640;10.050;2023-07-13T01:36:11;101062.09;;;13.45;100.00
23574;BME280;11965;53.640;10.050;2023-07-13T01:38:39;101061.69;;;13.41;100.00
23574;BME280;11965;53.640;10.050;2023-07-13T01:41:07;101065.97;;;13.44;100.00
23574;BME280;11965;53.640;10.050;2023-07-13T01:43:33;101069.19;;;13.41;100.00
23574;BME280;11965;53.640;10.050;2023-07-13T01:46:00;101068.09;;;13.42;100.00
23574;BME280;11965;53.640;10.050;2023-07-13T01:48:27;101062.09;;;13.38;100.00
23574;BME280;11965;53.640;10.050;2023-07-13T01:50:54;101059.75;;;13.42;100.00
23574;BME280;11965;53.640;10.050;2023-07-13T01:53:21;101061.88;;;13.33;100.00
23574;BME280;11965;53.640;10.050;2023-07-13T01:55:49;101056.28;;;13.33;100.00
23574;BME280;11965;53.640;10.050;2023-07-13T01:58:16;101053.50;;;13.33;100.00
23574;BME280;11965;53.640;10.050;2023-07-13T02:00:43;101052.25;;;13.36;100.00
23574;BME280;11965;53.640;10.050;2023-07-13T02:03:10;101056.53;;;13.38;100.00
23574;BME280;11965;53.640;10.050;2023-07-13T02:05:37;101052.25;;;13.36;100.00
23574;BME280;11965;53.640;10.050;2023-07-13T02:08:04;101056.13;;;13.41;100.00
23574;BME280;11965;53.640;10.050;2023-07-13T02:10:31;101057.81;;;13.36;100.00
23574;BME280;11965;53.640;10.050;2023-07-13T02:12:59;101061.22;;;13.38;100.00
23574;BME280;11965;53.640;10.050;2023-07-13T02:15:26;101057.16;;;13.40;100.00
23574;BME280;11965;53.640;10.050;2023-07-13T02:17:53;101059.50;;;13.37;100.00
23574;BME280;11965;53.640;10.050;2023-07-13T02:20:19;101060.38;;;13.37;100.00
23574;BME280;11965;53.640;10.050;2023-07-13T02:22:46;101056.06;;;13.35;100.00
23574;BME280;11965;53.640;10.050;2023-07-13T02:25:13;101064.41;;;13.35;100.00
23574;BME280;11965;53.640;10.050;2023-07-13T02:27:40;101066.34;;;13.34;100.00
23574;BME280;11965;53.640;10.050;2023-07-13T02:30:10;101067.63;;;13.32;100.00
23574;BME280;11965;53.640;10.050;2023-07-13T02:32:37;101070.22;;;13.33;100.00
23574;BME280;11965;53.640;10.050;2023-07-13T02:35:05;101071.31;;;13.39;100.00
23574;BME280;11965;53.640;10.050;2023-07-13T02:37:32;101072.16;;;13.33;100.00
23574;BME280;11965;53.640;10.050;2023-07-13T02:39:59;101068.47;;;13.32;100.00
23574;BME280;11965;53.640;10.050;2023-07-13T02:42:26;101065.84;;;13.24;100.00
23574;BME280;11965;53.640;10.050;2023-07-13T02:44:52;101063.56;;;13.28;100.00
23574;BME280;11965;53.640;10.050;2023-07-13T02:47:21;101065.06;;;13.30;100.00
23574;BME280;11965;53.640;10.050;2023-07-13T02:49:47;101070.16;;;13.26;100.00
23574;BME280;11965;53.640;10.050;2023-07-13T02:52:14;101063.75;;;13.26;100.00
23574;BME280;11965;53.640;10.050;2023-07-13T02:54:41;101060.06;;;13.25;100.00
23574;BME280;11965;53.640;10.050;2023-07-13T02:57:08;101064.78;;;13.25;100.00
23574;BME280;11965;53.640;10.050;2023-07-13T02:59:35;101063.06;;;13.24;100.00
23574;BME280;11965;53.640;10.050;2023-07-13T03:02:02;101065.00;;;13.23;100.00
23574;BME280;11965;53.640;10.050;2023-07-13T03:04:31;101071.03;;;13.27;100.00
23574;BME280;11965;53.640;10.050;2023-07-13T03:06:58;101070.16;;;13.26;100.00
23574;BME280;11965;53.640;10.050;2023-07-13T03:09:31;101076.13;;;13.23;100.00
23574;BME280;11965;53.640;10.050;2023-07-13T03:11:59;101069.25;;;13.19;100.00
23574;BME280;11965;53.640;10.050;2023-07-13T03:14:29;101068.19;;;13.20;100.00
23574;BME280;11965;53.640;10.050;2023-07-13T03:16:57;101055.75;;;13.16;100.00
23574;BME280;11965;53.640;10.050;2023-07-13T03:19:27;101067.94;;;13.15;100.00
23574;BME280;11965;53.640;10.050;2023-07-13T03:21:56;101067.28;;;13.13;100.00
23574;BME280;11965;53.640;10.050;2023-07-13T03:24:23;101066.06;;;13.22;100.00
23574;BME280;11965;53.640;10.050;2023-07-13T03:26:51;101067.38;;;13.26;100.00
23574;BME280;11965;53.640;10.050;2023-07-13T03:29:18;101063.75;;;13.26;100.00
23574;BME280;11965;53.640;10.050;2023-07-13T03:31:45;101059.88;;;13.27;100.00
23574;BME280;11965;53.640;10.050;2023-07-13T03:34:13;101059.22;;;13.25;100.00
23574;BME280;11965;53.640;10.050;2023-07-13T03:36:40;101059.88;;;13.27;100.00
23574;BME280;11965;53.640;10.050;2023-07-13T03:39:11;101055.41;;;13.26;100.00
23574;BME280;11965;53.640;10.050;2023-07-13T03:41:52;101061.41;;;13.30;100.00
23574;BME280;11965;53.640;10.050;2023-07-13T03:44:19;101058.66;;;13.36;100.00
23574;BME280;11965;53.640;10.050;2023-07-13T03:46:51;101055.03;;;13.36;100.00
23574;BME280;11965;53.640;10.050;2023-07-13T03:49:18;101057.16;;;13.40;100.00
23574;BME280;11965;53.640;10.050;2023-07-13T03:51:45;101053.75;;;13.38;100.00
23574;BME280;11965;53.640;10.050;2023-07-13T03:54:13;101059.09;;;13.40;100.00
23574;BME280;11965;53.640;10.050;2023-07-13T03:56:40;101059.13;;;13.46;100.00
23574;BME280;11965;53.640;10.050;2023-07-13T03:59:08;101060.66;;;13.49;100.00
23574;BME280;11965;53.640;10.050;2023-07-13T04:01:35;101067.50;;;13.53;100.00
23574;BME280;11965;53.640;10.050;2023-07-13T04:04:02;101083.59;;;13.58;100.00
23574;BME280;11965;53.640;10.050;2023-07-13T04:06:31;101079.53;;;13.60;100.00
23574;BME280;11965;53.640;10.050;2023-07-13T04:09:00;101075.28;;;13.78;100.00
23574;BME280;11965;53.640;10.050;2023-07-13T04:11:31;101077.91;;;13.92;100.00
23574;BME280;11965;53.640;10.050;2023-07-13T04:14:00;101065.91;;;13.99;100.00
23574;BME280;11965;53.640;10.050;2023-07-13T04:16:27;101073.00;;;14.08;100.00
23574;BME280;11965;53.640;10.050;2023-07-13T04:18:54;101068.06;;;14.17;100.00
23574;BME280;11965;53.640;10.050;2023-07-13T04:21:25;101076.19;;;14.18;100.00
23574;BME280;11965;53.640;10.050;2023-07-13T04:23:52;101074.91;;;14.01;100.00
23574;BME280;11965;53.640;10.050;2023-07-13T04:26:20;101068.72;;;14.05;100.00
23574;BME280;11965;53.640;10.050;2023-07-13T04:28:50;101072.75;;;13.96;100.00
23574;BME280;11965;53.640;10.050;2023-07-13T04:31:18;101072.31;;;13.99;100.00
23574;BME280;11965;53.640;10.050;2023-07-13T04:33:45;101067.81;;;14.05;100.00
23574;BME280;11965;53.640;10.050;2023-07-13T04:36:12;101062.91;;;14.07;100.00
23574;BME280;11965;53.640;10.050;2023-07-13T04:38:38;101072.34;;;14.12;100.00
23574;BME280;11965;53.640;10.050;2023-07-13T04:41:08;101065.72;;;14.27;100.00
23574;BME280;11965;53.640;10.050;2023-07-13T04:43:36;101065.28;;;14.36;100.00
23574;BME280;11965;53.640;10.050;2023-07-13T04:46:06;101068.28;;;14.42;100.00
23574;BME280;11965;53.640;10.050;2023-07-13T04:48:34;101074.09;;;14.67;100.00
23574;BME280;11965;53.640;10.050;2023-07-13T04:51:02;101076.03;;;14.53;100.00
23574;BME280;11965;53.640;10.050;2023-07-13T04:53:30;101073.44;;;14.71;100.00
23574;BME280;11965;53.640;10.050;2023-07-13T04:55:59;101073.44;;;14.78;100.00
23574;BME280;11965;53.640;10.050;2023-07-13T04:58:27;101082.03;;;14.63;100.00
23574;BME280;11965;53.640;10.050;2023-07-13T05:00:59;101082.25;;;14.75;100.00
23574;BME280;11965;53.640;10.050;2023-07-13T05:03:28;101080.31;;;14.89;100.00
23574;BME280;11965;53.640;10.050;2023-07-13T05:05:56;101083.47;;;14.99;100.00
23574;BME280;11965;53.640;10.050;2023-07-13T05:08:23;101090.81;;;14.87;100.00
23574;BME280;11965;53.640;10.050;2023-07-13T05:10:50;101094.47;;;14.94;100.00
23574;BME280;11965;53.640;10.050;2023-07-13T05:13:17;101090.13;;;15.18;100.00
23574;BME280;11965;53.640;10.050;2023-07-13T05:15:44;101093.75;;;15.18;100.00
23574;BME280;11965;53.640;10.050;2023-07-13T05:18:10;101096.03;;;15.41;100.00
23574;BME280;11965;53.640;10.050;2023-07-13T05:20:39;101090.81;;;15.58;100.00
23574;BME280;11965;53.640;10.050;2023-07-13T05:23:06;101099.81;;;15.60;100.00
23574;BME280;11965;53.640;10.050;2023-07-13T05:25:33;101094.22;;;15.60;100.00
23574;BME280;11965;53.640;10.050;2023-07-13T05:28:00;101099.72;;;15.87;100.00
23574;BME280;11965;53.640;10.050;2023-07-13T05:30:27;101100.63;;;15.81;100.00
23574;BME280;11965;53.640;10.050;2023-07-13T05:32:54;101109.50;;;16.09;100.00
23574;BME280;11965;53.640;10.050;2023-07-13T05:35:21;101111.19;;;16.10;100.00
23574;BME280;11965;53.640;10.050;2023-07-13T05:37:49;101112.03;;;16.11;100.00
23574;BME280;11965;53.640;10.050;2023-07-13T05:40:19;101106.44;;;16.43;100.00
23574;BME280;11965;53.640;10.050;2023-07-13T05:42:46;101114.38;;;16.14;100.00
23574;BME280;11965;53.640;10.050;2023-07-13T05:45:12;101106.06;;;16.07;100.00
23574;BME280;11965;53.640;10.050;2023-07-13T05:47:39;101112.63;;;16.20;100.00
23574;BME280;11965;53.640;10.050;2023-07-13T05:50:07;101103.66;;;16.11;100.00
23574;BME280;11965;53.640;10.050;2023-07-13T05:52:34;101114.19;;;16.09;100.00
23574;BME280;11965;53.640;10.050;2023-07-13T05:55:04;101112.50;;;16.08;100.00
23574;BME280;11965;53.640;10.050;2023-07-13T05:57:31;101118.84;;;16.22;100.00
23574;BME280;11965;53.640;10.050;2023-07-13T05:59:58;101115.50;;;16.38;100.00
23574;BME280;11965;53.640;10.050;2023-07-13T06:02:25;101107.63;;;16.28;100.00
23574;BME280;11965;53.640;10.050;2023-07-13T06:04:52;101122.38;;;16.10;100.00
23574;BME280;11965;53.640;10.050;2023-07-13T06:07:24;101124.06;;;16.11;100.00
23574;BME280;11965;53.640;10.050;2023-07-13T06:09:51;101130.13;;;16.40;100.00
23574;BME280;11965;53.640;10.050;2023-07-13T06:12:19;101128.94;;;16.54;100.00
23574;BME280;11965;53.640;10.050;2023-07-13T06:14:46;101133.75;;;16.47;100.00
23574;BME280;11965;53.640;10.050;2023-07-13T06:17:13;101140.88;;;16.43;100.00
23574;BME280;11965;53.640;10.050;2023-07-13T06:19:40;101136.03;;;16.57;100.00
23574;BME280;11965;53.640;10.050;2023-07-13T06:22:07;101133.38;;;16.37;100.00
23574;BME280;11965;53.640;10.050;2023-07-13T06:24:33;101133.22;;;16.57;100.00
23574;BME280;11965;53.640;10.050;2023-07-13T06:27:00;101137.97;;;16.56;100.00
23574;BME280;11965;53.640;10.050;2023-07-13T06:29:28;101140.03;;;16.68;100.00
23574;BME280;11965;53.640;10.050;2023-07-13T06:31:55;101140.72;;;16.63;100.00
23574;BME280;11965;53.640;10.050;2023-07-13T06:34:22;101136.50;;;16.79;100.00
23574;BME280;11965;53.640;10.050;2023-07-13T06:36:49;101143.47;;;16.70;100.00
23574;BME280;11965;53.640;10.050;2023-07-13T06:42:38;101138.88;;;16.75;100.00
23574;BME280;11965;53.640;10.050;2023-07-13T06:45:07;101141.94;;;16.74;100.00
23574;BME280;11965;53.640;10.050;2023-07-13T06:47:34;101138.47;;;17.04;100.00
23574;BME280;11965;53.640;10.050;2023-07-13T06:50:02;101145.06;;;17.09;100.00
23574;BME280;11965;53.640;10.050;2023-07-13T06:52:29;101143.38;;;17.27;100.00
23574;BME280;11965;53.640;10.050;2023-07-13T06:54:56;101145.56;;;17.61;100.00
23574;BME280;11965;53.640;10.050;2023-07-13T06:57:23;101148.66;;;17.35;100.00
23574;BME280;11965;53.640;10.050;2023-07-13T06:59:50;101147.41;;;17.67;100.00
23574;BME280;11965;53.640;10.050;2023-07-13T07:02:18;101150.09;;;17.44;100.00
23574;BME280;11965;53.640;10.050;2023-07-13T07:04:45;101145.19;;;17.76;100.00
23574;BME280;11965;53.640;10.050;2023-07-13T07:07:11;101147.75;;;17.96;100.00
23574;BME280;11965;53.640;10.050;2023-07-13T07:09:38;101147.84;;;18.20;100.00
23574;BME280;11965;53.640;10.050;2023-07-13T07:12:06;101152.13;;;18.22;100.00
23574;BME280;11965;53.640;10.050;2023-07-13T07:14:33;101148.50;;;18.33;100.00
23574;BME280;11965;53.640;10.050;2023-07-13T07:17:00;101153.88;;;18.35;100.00
23574;BME280;11965;53.640;10.050;2023-07-13T07:19:29;101150.53;;;18.57;100.00
23574;BME280;11965;53.640;10.050;2023-07-13T07:21:56;101155.25;;;18.44;100.00
23574;BME280;11965;53.640;10.050;2023-07-13T07:24:23;101164.81;;;18.55;100.00
23574;BME280;11965;53.640;10.050;2023-07-13T07:26:50;101163.88;;;18.73;100.00
23574;BME280;11965;53.640;10.050;2023-07-13T07:29:17;101161.13;;;18.54;100.00
23574;BME280;11965;53.640;10.050;2023-07-13T07:31:44;101163.56;;;18.21;100.00
23574;BME280;11965;53.640;10.050;2023-07-13T07:34:10;101164.34;;;18.28;100.00
23574;BME280;11965;53.640;10.050;2023-07-13T07:36:38;101158.19;;;18.49;100.00
23574;BME280;11965;53.640;10.050;2023-07-13T07:39:05;101161.59;;;18.93;99.26
23574;BME280;11965;53.640;10.050;2023-07-13T07:41:32;101159.28;;;19.49;93.25
23574;BME280;11965;53.640;10.050;2023-07-13T07:43:59;101156.69;;;19.71;93.79
23574;BME280;11965;53.640;10.050;2023-07-13T07:46:26;101157.53;;;19.60;92.74
23574;BME280;11965;53.640;10.050;2023-07-13T07:48:54;101153.78;;;19.31;91.50
23574;BME280;11965;53.640;10.050;2023-07-13T07:51:21;101151.63;;;19.21;95.15
23574;BME280;11965;53.640;10.050;2023-07-13T07:53:49;101152.44;;;19.10;93.08
23574;BME280;11965;53.640;10.050;2023-07-13T07:56:16;101160.28;;;19.08;95.71
23574;BME280;11965;53.640;10.050;2023-07-13T07:58:43;101159.41;;;19.07;95.02
23574;BME280;11965;53.640;10.050;2023-07-13T08:01:10;101157.69;;;19.18;90.49
23574;BME280;11965;53.640;10.050;2023-07-13T08:03:37;101149.53;;;19.40;90.47
23574;BME280;11965;53.640;10.050;2023-07-13T08:06:04;101150.72;;;19.44;89.49
23574;BME280;11965;53.640;10.050;2023-07-13T08:08:31;101156.06;;;19.57;87.86
23574;BME280;11965;53.640;10.050;2023-07-13T08:11:02;101148.53;;;19.34;91.64
23574;BME280;11965;53.640;10.050;2023-07-13T08:13:29;101141.81;;;19.12;94.63
23574;BME280;11965;53.640;10.050;2023-07-13T08:15:56;101144.13;;;19.15;92.07
23574;BME280;11965;53.640;10.050;2023-07-13T08:18:24;101149.13;;;19.48;92.23
23574;BME280;11965;53.640;10.050;2023-07-13T08:20:51;101140.25;;;19.92;89.93
23574;BME280;11965;53.640;10.050;2023-07-13T08:23:18;101146.13;;;20.19;83.32
23574;BME280;11965;53.640;10.050;2023-07-13T08:25:51;101155.00;;;20.39;81.08
23574;BME280;11965;53.640;10.050;2023-07-13T08:28:19;101144.47;;;20.63;81.35
23574;BME280;11965;53.640;10.050;2023-07-13T08:30:47;101145.75;;;20.56;83.21
23574;BME280;11965;53.640;10.050;2023-07-13T08:33:14;101145.25;;;20.47;84.74
23574;BME280;11965;53.640;10.050;2023-07-13T08:35:41;101155.22;;;20.66;87.41
23574;BME280;11965;53.640;10.050;2023-07-13T08:38:08;101156.50;;;21.09;79.65
23574;BME280;11965;53.640;10.050;2023-07-13T08:40:35;101163.34;;;20.96;80.20
23574;BME280;11965;53.640;10.050;2023-07-13T08:43:01;101163.44;;;20.85;80.20
23574;BME280;11965;53.640;10.050;2023-07-13T08:45:38;101157.25;;;21.22;81.55
23574;BME280;11965;53.640;10.050;2023-07-13T08:48:13;101162.03;;;21.38;78.17
23574;BME280;11965;53.640;10.050;2023-07-13T08:50:51;101160.63;;;21.02;73.71
23574;BME280;11965;53.640;10.050;2023-07-13T08:53:25;101153.25;;;21.01;78.71
23574;BME280;11965;53.640;10.050;2023-07-13T08:55:59;101155.50;;;20.99;81.59
23574;BME280;11965;53.640;10.050;2023-07-13T08:58:27;101162.75;;;20.94;77.31
23574;BME280;11965;53.640;10.050;2023-07-13T09:01:06;101147.28;;;20.35;80.25
23574;BME280;11965;53.640;10.050;2023-07-13T09:03:49;101147.72;;;20.72;78.79
23574;BME280;11965;53.640;10.050;2023-07-13T09:06:27;101155.75;;;20.80;85.22
23574;BME280;11965;53.640;10.050;2023-07-13T09:09:02;101157.44;;;21.15;74.26
23574;BME280;11965;53.640;10.050;2023-07-13T09:11:45;101161.34;;;21.48;73.83
23574;BME280;11965;53.640;10.050;2023-07-13T09:14:32;101158.81;;;21.90;76.48
23574;BME280;11965;53.640;10.050;2023-07-13T09:17:04;101152.56;;;22.32;67.48
23574;BME280;11965;53.640;10.050;2023-07-13T09:19:34;101148.19;;;22.46;71.93
23574;BME280;11965;53.640;10.050;2023-07-13T09:22:07;101159.63;;;22.35;68.74
23574;BME280;11965;53.640;10.050;2023-07-13T09:24:42;101152.84;;;22.09;69.17
23574;BME280;11965;53.640;10.050;2023-07-13T09:27:21;101155.59;;;22.25;69.15
23574;BME280;11965;53.640;10.050;2023-07-13T09:29:57;101160.47;;;22.30;66.76
23574;BME280;11965;53.640;10.050;2023-07-13T09:32:31;101153.78;;;22.41;64.92
23574;BME280;11965;53.640;10.050;2023-07-13T09:34:58;101147.72;;;22.55;63.73
23574;BME280;11965;53.640;10.050;2023-07-13T09:37:31;101161.25;;;22.53;65.24
23574;BME280;11965;53.640;10.050;2023-07-13T09:40:01;101142.56;;;22.79;65.33
23574;BME280;11965;53.640;10.050;2023-07-13T09:42:32;101152.78;;;23.17;62.74
23574;BME280;11965;53.640;10.050;2023-07-13T09:45:01;101149.84;;;23.02;61.47
23574;BME280;11965;53.640;10.050;2023-07-13T09:47:33;101155.38;;;23.19;62.83
23574;BME280;11965;53.640;10.050;2023-07-13T09:50:09;101164.50;;;23.73;58.26
23574;BME280;11965;53.640;10.050;2023-07-13T09:52:41;101158.97;;;23.51;61.90
23574;BME280;11965;53.640;10.050;2023-07-13T09:55:25;101168.75;;;23.33;57.20
23574;BME280;11965;53.640;10.050;2023-07-13T09:57:53;101165.94;;;23.81;60.50
23574;BME280;11965;53.640;10.050;2023-07-13T10:00:23;101156.44;;;24.18;58.16
23574;BME280;11965;53.640;10.050;2023-07-13T10:03:15;101167.59;;;23.34;58.03
23574;BME280;11965;53.640;10.050;2023-07-13T10:05:45;101170.81;;;23.06;54.61
23574;BME280;11965;53.640;10.050;2023-07-13T10:08:17;101162.38;;;23.11;54.15
23574;BME280;11965;53.640;10.050;2023-07-13T10:10:45;101165.25;;;22.89;60.87
23574;BME280;11965;53.640;10.050;2023-07-13T10:13:27;101160.63;;;22.78;64.09
23574;BME280;11965;53.640;10.050;2023-07-13T10:15:56;101166.41;;;22.61;60.27
23574;BME280;11965;53.640;10.050;2023-07-13T10:18:27;101163.84;;;22.32;60.16
23574;BME280;11965;53.640;10.050;2023-07-13T10:21:12;101161.78;;;22.22;61.77
23574;BME280;11965;53.640;10.050;2023-07-13T10:23:42;101161.44;;;21.75;61.67
23574;BME280;11965;53.640;10.050;2023-07-13T10:26:21;101145.00;;;22.16;59.42
23574;BME280;11965;53.640;10.050;2023-07-13T10:28:53;101158.84;;;22.39;60.43
23574;BME280;11965;53.640;10.050;2023-07-13T10:31:22;101146.38;;;22.62;61.03
23574;BME280;11965;53.640;10.050;2023-07-13T10:33:51;101153.91;;;22.52;62.17
23574;BME280;11965;53.640;10.050;2023-07-13T10:36:29;101157.13;;;23.30;60.96
23574;BME280;11965;53.640;10.050;2023-07-13T10:39:01;101145.16;;;23.60;53.96
23574;BME280;11965;53.640;10.050;2023-07-13T10:41:34;101144.34;;;23.70;55.89
23574;BME280;11965;53.640;10.050;2023-07-13T10:44:04;101146.53;;;23.57;53.20
23574;BME280;11965;53.640;10.050;2023-07-13T10:46:36;101156.94;;;23.04;57.03
23574;BME280;11965;53.640;10.050;2023-07-13T10:49:06;101142.03;;;23.56;51.05
23574;BME280;11965;53.640;10.050;2023-07-13T10:51:35;101147.06;;;23.97;52.24
23574;BME280;11965;53.640;10.050;2023-07-13T10:54:16;101151.56;;;23.98;51.45
23574;BME280;11965;53.640;10.050;2023-07-13T10:56:43;101138.81;;;23.95;51.28
23574;BME280;11965;53.640;10.050;2023-07-13T10:59:15;101151.47;;;23.72;55.86
23574;BME280;11965;53.640;10.050;2023-07-13T11:01:52;101148.09;;;23.75;51.56
23574;BME280;11965;53.640;10.050;2023-07-13T11:04:22;101141.09;;;23.98;49.59
23574;BME280;11965;53.640;10.050;2023-07-13T11:06:56;101146.59;;;24.36;48.95
23574;BME280;11965;53.640;10.050;2023-07-13T11:09:36;101147.78;;;24.65;46.87
23574;BME280;11965;53.640;10.050;2023-07-13T11:12:18;101141.56;;;24.79;46.47
23574;BME280;11965;53.640;10.050;2023-07-13T11:15:10;101137.06;;;24.83;47.77
23574;BME280;11965;53.640;10.050;2023-07-13T11:17:48;101137.03;;;24.67;49.21
23574;BME280;11965;53.640;10.050;2023-07-13T11:20:32;101159.97;;;24.45;49.01
23574;BME280;11965;53.640;10.050;2023-07-13T11:23:27;101147.13;;;24.28;47.47
23574;BME280;11965;53.640;10.050;2023-07-13T11:25:55;101138.47;;;24.90;48.63
23574;BME280;11965;53.640;10.050;2023-07-13T11:28:25;101148.91;;;25.36;47.88
23574;BME280;11965;53.640;10.050;2023-07-13T11:31:17;101153.47;;;25.47;46.89
23574;BME280;11965;53.640;10.050;2023-07-13T11:33:52;101164.84;;;25.17;45.09
23574;BME280;11965;53.640;10.050;2023-07-13T11:36:23;101157.72;;;25.09;44.77
23574;BME280;11965;53.640;10.050;2023-07-13T11:39:00;101169.66;;;24.75;46.35
23574;BME280;11965;53.640;10.050;2023-07-13T11:41:33;101175.91;;;23.89;50.21
23574;BME280;11965;53.640;10.050;2023-07-13T11:44:10;101182.03;;;23.33;52.11
23574;BME280;11965;53.640;10.050;2023-07-13T11:46:37;101175.75;;;22.93;53.04
23574;BME280;11965;53.640;10.050;2023-07-13T11:49:05;101174.44;;;23.01;54.40
23574;BME280;11965;53.640;10.050;2023-07-13T11:51:36;101174.13;;;23.72;54.02
23574;BME280;11965;53.640;10.050;2023-07-13T11:54:05;101171.69;;;23.49;50.53
23574;BME280;11965;53.640;10.050;2023-07-13T11:56:33;101177.97;;;23.61;49.44
23574;BME280;11965;53.640;10.050;2023-07-13T11:59:06;101181.53;;;23.84;51.40
23574;BME280;11965;53.640;10.050;2023-07-13T12:01:41;101180.88;;;23.71;47.77
23574;BME280;11965;53.640;10.050;2023-07-13T12:04:21;101173.75;;;23.69;52.39
23574;BME280;11965;53.640;10.050;2023-07-13T12:06:55;101171.38;;;23.50;50.48
23574;BME280;11965;53.640;10.050;2023-07-13T12:09:26;101184.66;;;23.45;51.83
23574;BME280;11965;53.640;10.050;2023-07-13T12:11:53;101200.03;;;23.17;54.22
23574;BME280;11965;53.640;10.050;2023-07-13T12:14:20;101216.69;;;22.59;56.48
23574;BME280;11965;53.640;10.050;2023-07-13T12:16:50;101225.72;;;21.73;58.11
23574;BME280;11965;53.640;10.050;2023-07-13T12:19:21;101247.38;;;21.00;60.43
23574;BME280;11965;53.640;10.050;2023-07-13T12:21:50;101261.84;;;19.94;69.81
23574;BME280;11965;53.640;10.050;2023-07-13T12:24:20;101291.91;;;18.62;85.21
23574;BME280;11965;53.640;10.050;2023-07-13T12:26:51;101315.53;;;17.31;100.00
23574;BME280;11965;53.640;10.050;2023-07-13T12:29:19;101330.88;;;16.51;100.00
23574;BME280;11965;53.640;10.050;2023-07-13T12:31:48;101315.72;;;16.14;100.00
23574;BME280;11965;53.640;10.050;2023-07-13T12:34:16;101306.97;;;15.97;100.00
23574;BME280;11965;53.640;10.050;2023-07-13T12:36:49;101310.41;;;15.99;100.00
23574;BME280;11965;53.640;10.050;2023-07-13T12:39:22;101299.00;;;16.07;100.00
23574;BME280;11965;53.640;10.050;2023-07-13T12:41:50;101297.03;;;16.08;100.00
23574;BME280;11965;53.640;10.050;2023-07-13T12:44:28;101309.84;;;16.35;100.00
23574;BME280;11965;53.640;10.050;2023-07-13T12:46:58;101301.38;;;16.94;100.00
23574;BME280;11965;53.640;10.050;2023-07-13T12:49:29;101306.56;;;17.47;100.00